Rowland, Pennsylvania
Current Conditions -  °F | °C
As of 12:55 AM on Wednesday 22 Oct 2014 (Local Time) from KMSV Reporting Station
Overcast Overcast  
Wind Chill: 48°   Ceiling: 400
Heat Index: 48°   Visibility: 5mi
Dew Point: 48°   Wind: 3mph
Humidity: 100%   Direction: 20°NNE
Pressure: 29.96"   Gusts: NA
Location:  41.47°N, 75.04°W
Report Text: KMSV 220455Z AUTO 02003KT 5SM OVC004 09/09 A2996 RMK AO1 P0001
Loading
Personal Weather Stations






























Interactive Weather Map
Tropical Storm Tracking
New forecast layout! Learn more

10-Day Weather Forecast

Advertisements
Track Severe Weather on mobile